Time;durP1;ratioP1;P1;durP2;ratioP2;P2;SDS_P1;SDS_P2;PMS_P1;PMS_P2;Temp;Humidity;BMP_temperature;BMP_pressure;BME280_temperature;BME280_humidity;BME280_pressure;Samples;Min_cycle;Max_cycle;Signal;HPM_P1;HPM_P2
2022/03/27 07:59:09;;;;;;;28.13;19.48;;;;;;;8.98;87.69;103079.59;5332507;27;20346;-73
2022/03/27 08:01:40;;;;;;;;;;;;;;;9.03;87.40;103076.16;5344299;28;20039;-72
2022/03/27 08:04:11;;;;;;;24.58;18.73;;;;;;;8.85;87.69;103075.00;5343012;28;19911;-73
2022/03/27 08:06:43;;;;;;;28.38;20.20;;;;;;;8.70;88.50;103078.06;5344091;28;20037;-72
2022/03/27 08:09:15;;;;;;;30.15;23.73;;;;;;;8.85;88.84;103077.75;5343823;28;20058;-72
2022/03/27 08:11:46;;;;;;;28.42;20.88;;;;;;;8.77;88.66;103072.50;5310604;28;20027;-72
2022/03/27 08:14:18;;;;;;;26.77;19.65;;;;;;;8.78;89.35;103073.34;5301143;28;20081;-72
2022/03/27 08:16:49;;;;;;;27.05;20.02;;;;;;;8.78;89.47;103076.13;5301019;28;20032;-72
2022/03/27 08:19:20;;;;;;;27.25;19.13;;;;;;;8.78;88.88;103076.94;5300313;28;20028;-71
2022/03/27 08:21:53;;;;;;;26.13;20.02;;;;;;;8.80;89.44;103072.06;5301154;28;20024;-73
2022/03/27 08:24:24;;;;;;;29.45;20.25;;;;;;;8.79;89.14;103078.63;5299845;28;20020;-73
2022/03/27 08:26:56;;;;;;;26.67;20.35;;;;;;;8.95;88.35;103077.28;5300987;28;20024;-72
2022/03/27 08:29:30;;;;;;;25.40;19.33;;;;;;;9.16;87.83;103081.56;5301222;28;20424;-72
2022/03/27 08:32:04;;;;;;;23.33;18.55;;;;;;;9.22;87.39;103077.03;5299735;28;20023;-72
2022/03/27 08:34:37;;;;;;;26.98;19.25;;;;;;;9.18;87.09;103079.44;5306811;28;20030;-72
2022/03/27 08:37:12;;;;;;;36.03;28.40;;;;;;;9.19;86.71;103083.03;5317119;28;20008;-73
2022/03/27 08:39:47;;;;;;;23.95;18.25;;;;;;;9.22;86.59;103085.34;5301000;28;20409;-72
2022/03/27 08:42:20;;;;;;;24.70;18.93;;;;;;;9.26;85.96;103084.69;5300568;28;20111;-72
2022/03/27 08:44:53;;;;;;;23.92;18.85;;;;;;;9.42;86.02;103083.25;5308526;28;20087;-73
2022/03/27 08:47:26;;;;;;;22.85;18.40;;;;;;;9.38;86.28;103078.38;5321052;28;20376;-73
2022/03/27 08:50:11;;;;;;;27.90;19.13;;;;;;;9.44;85.82;103083.88;5321602;28;20043;-72
2022/03/27 08:52:55;;;;;;;24.20;19.15;;;;;;;9.29;86.04;103075.91;5318583;28;20134;-72
2022/03/27 08:55:59;;;;;;;27.10;19.08;;;;;;;9.14;85.94;103079.00;5312057;28;20107;-72
2022/03/27 08:58:40;;;;;;;34.92;28.33;;;;;;;9.40;85.55;103076.25;5303369;28;20127;-72
2022/03/27 09:01:11;;;;;;;24.05;19.77;;;;;;;9.54;84.84;103083.34;5300206;28;20055;-73
2022/03/27 09:03:43;;;;;;;28.63;19.10;;;;;;;9.60;84.03;103087.13;5300647;28;20046;-73
2022/03/27 09:06:14;;;;;;;22.70;18.38;;;;;;;9.49;83.12;103091.50;5300272;28;20031;-71
2022/03/27 09:08:45;;;;;;;21.73;16.75;;;;;;;9.28;83.33;103089.97;5293906;28;20029;-71
2022/03/27 09:11:19;;;;;;;22.27;17.92;;;;;;;9.43;83.99;103093.25;5286759;28;20056;-71
2022/03/27 09:13:56;;;;;;;23.08;18.58;;;;;;;9.54;83.06;103100.81;5284924;28;20108;-71
2022/03/27 09:16:27;;;;;;;25.77;20.73;;;;;;;9.21;83.33;103100.28;5286200;28;20030;-71
2022/03/27 09:19:00;;;;;;;25.08;19.85;;;;;;;9.22;83.86;103097.25;5294311;28;20352;-71
2022/03/27 09:21:31;;;;;;;22.80;17.55;;;;;;;9.28;84.42;103101.03;5305930;28;20030;-71
2022/03/27 09:24:03;;;;;;;22.48;18.67;;;;;;;9.09;84.02;103103.75;5306398;28;20024;-71
2022/03/27 09:26:34;;;;;;;24.13;18.92;;;;;;;9.20;84.61;103101.34;5306581;28;20024;-71
2022/03/27 09:29:10;;;;;;;22.25;17.15;;;;;;;9.24;84.05;103102.59;5306102;28;20024;-71
2022/03/27 09:31:42;;;;;;;22.95;17.77;;;;;;;9.40;84.36;103103.94;5306317;28;20028;-71
2022/03/27 09:34:13;;;;;;;22.67;17.30;;;;;;;9.21;84.52;103103.03;5306675;28;20460;-71
2022/03/27 09:36:46;;;;;;;21.75;16.95;;;;;;;9.21;84.40;103105.81;5291083;28;20036;-72
2022/03/27 09:39:18;;;;;;;20.90;16.83;;;;;;;9.33;83.98;103098.44;5306815;28;20032;-71
2022/03/27 09:41:52;;;;;;;22.02;17.10;;;;;;;9.08;84.34;103096.53;5305734;28;20032;-72
2022/03/27 09:44:29;;;;;;;21.20;15.38;;;;;;;9.38;84.78;103095.84;5306300;28;20064;-71
2022/03/27 09:47:02;;;;;;;20.17;16.80;;;;;;;9.29;84.21;103088.91;5306775;28;20020;-72
2022/03/27 09:49:34;;;;;;;21.45;17.13;;;;;;;9.38;83.82;103095.84;5305674;28;20479;-71
2022/03/27 09:52:17;;;;;;;22.83;15.80;;;;;;;9.62;83.45;103093.31;5304261;28;20059;-71
2022/03/27 09:54:53;;;;;;;26.75;20.58;;;;;;;9.49;83.07;103089.56;5284799;28;20024;-71
2022/03/27 09:57:35;;;;;;;21.95;17.73;;;;;;;9.70;83.41;103082.75;5284058;28;20079;-70
2022/03/27 10:00:21;;;;;;;20.35;16.70;;;;;;;9.68;83.62;103067.44;5285001;28;20476;-70
2022/03/27 10:02:52;;;;;;;22.55;16.67;;;;;;;9.61;83.35;103074.97;5284041;28;20471;-71
2022/03/27 10:05:30;;;;;;;22.35;16.88;;;;;;;9.83;82.94;103069.84;5296525;28;20027;-70
2022/03/27 10:08:02;;;;;;;19.02;16.60;;;;;;;9.85;82.44;103067.69;5284832;28;20033;-69
2022/03/27 10:10:37;;;;;;;21.30;17.38;;;;;;;9.86;82.43;103064.66;5284384;28;20024;-71
2022/03/27 10:13:10;;;;;;;22.52;16.58;;;;;;;10.09;81.99;103063.97;5284081;28;20044;-71
2022/03/27 10:15:48;;;;;;;22.05;17.30;;;;;;;9.94;82.06;103063.50;5284849;28;20032;-71
2022/03/27 10:18:20;;;;;;;22.35;17.40;;;;;;;10.01;81.90;103059.56;5283131;28;20121;-72
2022/03/27 10:20:58;;;;;;;24.73;18.92;;;;;;;10.11;81.73;103049.88;5283281;28;20039;-70
2022/03/27 10:23:31;;;;;;;28.83;23.65;;;;;;;10.22;81.51;103055.47;5285550;28;20025;-71
2022/03/27 10:26:05;;;;;;;21.13;16.70;;;;;;;10.00;80.82;103048.75;5283927;28;20020;-70
2022/03/27 10:28:37;;;;;;;22.05;18.05;;;;;;;10.18;81.58;103045.94;5305583;28;20016;-71
2022/03/27 10:31:09;;;;;;;20.42;16.77;;;;;;;10.13;81.00;103042.19;5304681;28;20034;-71
2022/03/27 10:33:41;;;;;;;22.13;17.58;;;;;;;10.39;81.10;103044.63;5287414;28;20020;-71
2022/03/27 10:36:21;;;;;;;20.75;17.00;;;;;;;10.52;80.20;103053.84;5305624;28;20035;-70
2022/03/27 10:39:02;;;;;;;20.17;16.48;;;;;;;10.53;79.26;103045.28;5324054;28;20473;-71
2022/03/27 10:41:51;;;;;;;21.75;17.42;;;;;;;10.59;79.00;103043.50;5288624;28;20051;-71
2022/03/27 10:44:36;;;;;;;21.02;17.02;;;;;;;10.81;79.12;103033.53;5295975;28;20028;-71
2022/03/27 10:47:19;;;;;;;19.55;16.55;;;;;;;11.03;77.64;103036.56;5304590;28;20097;-71
2022/03/27 10:50:02;;;;;;;19.65;17.00;;;;;;;11.10;77.16;103030.91;5304970;28;20024;-71
2022/03/27 10:52:36;;;;;;;19.80;15.80;;;;;;;11.20;76.50;103036.72;5304158;28;20055;-71
2022/03/27 10:55:13;;;;;;;19.63;16.55;;;;;;;11.35;75.73;103035.38;5304693;28;20051;-71
2022/03/27 10:57:46;;;;;;;19.73;17.10;;;;;;;11.51;75.84;103026.34;5296296;28;20131;-70
2022/03/27 11:00:37;;;;;;;18.00;16.05;;;;;;;11.58;75.51;103021.50;5286207;28;20540;-71
2022/03/27 11:03:08;;;;;;;19.70;17.13;;;;;;;11.46;75.26;103020.66;5304811;28;20481;-71
2022/03/27 11:05:41;;;;;;;18.67;16.50;;;;;;;11.54;75.52;103017.50;5304755;28;20069;-71
2022/03/27 11:08:19;;;;;;;21.30;18.30;;;;;;;11.65;75.12;103021.34;5304242;28;20071;-71
2022/03/27 11:10:58;;;;;;;21.25;16.92;;;;;;;11.83;74.65;103017.56;5297138;28;20379;-71
2022/03/27 11:13:32;;;;;;;25.40;17.50;;;;;;;11.92;73.60;103008.63;5299603;28;20015;-70
2022/03/27 11:16:07;;;;;;;19.60;17.02;;;;;;;11.74;73.56;103015.19;5296362;28;20035;-71
2022/03/27 11:18:41;;;;;;;18.45;16.52;;;;;;;11.88;73.69;103014.94;5284088;28;20059;-70
2022/03/27 11:21:33;;;;;;;20.55;16.98;;;;;;;12.05;73.04;103004.72;5282638;28;20025;-70
2022/03/27 11:24:04;;;;;;;19.23;17.23;;;;;;;12.10;72.27;103007.59;5283317;28;20060;-70
2022/03/27 11:26:36;;;;;;;17.92;16.02;;;;;;;12.17;72.05;102999.13;5283748;28;20106;-70
2022/03/27 11:29:10;;;;;;;19.08;16.42;;;;;;;12.40;71.97;103000.97;5283054;28;20067;-70
2022/03/27 11:31:41;;;;;;;17.58;15.55;;;;;;;12.33;71.18;102997.47;5283521;28;20050;-70
2022/03/27 11:34:14;;;;;;;18.77;16.50;;;;;;;12.29;71.49;102993.50;5283406;28;20120;-71
2022/03/27 11:37:09;;;;;;;18.90;16.33;;;;;;;12.43;70.93;102992.09;5285000;28;20119;-71
2022/03/27 11:39:41;;;;;;;21.27;15.75;;;;;;;12.42;70.71;102997.91;5282646;28;20020;-71
2022/03/27 11:42:32;;;;;;;22.45;17.80;;;;;;;12.70;70.83;102994.22;5282105;28;20154;-70
2022/03/27 11:45:20;;;;;;;19.27;16.90;;;;;;;12.70;70.70;102994.22;5284448;28;20099;-69
2022/03/27 11:47:54;;;;;;;18.02;15.57;;;;;;;12.78;69.79;102991.03;5282842;28;20075;-70
2022/03/27 11:50:29;;;;;;;20.55;18.45;;;;;;;12.96;69.19;102988.03;5282699;28;20100;-70
2022/03/27 11:53:02;;;;;;;21.65;17.48;;;;;;;13.17;69.00;102983.59;5300082;28;20038;-69
2022/03/27 11:55:35;;;;;;;20.52;16.45;;;;;;;13.17;68.39;102979.97;5285696;28;20032;-72
2022/03/27 11:58:11;;;;;;;19.35;16.25;;;;;;;13.20;68.02;102971.94;5303627;28;20116;-72
2022/03/27 12:00:46;;;;;;;18.92;16.95;;;;;;;13.13;67.72;102962.91;5304217;28;20031;-71
2022/03/27 12:03:20;;;;;;;18.15;16.25;;;;;;;13.44;67.84;102966.16;5303274;28;20113;-70
2022/03/27 12:05:53;;;;;;;19.63;15.93;;;;;;;13.52;66.62;102954.56;5304212;28;20103;-71
2022/03/27 12:08:36;;;;;;;20.98;17.02;;;;;;;13.69;66.52;102957.31;5303246;28;20059;-73
2022/03/27 12:11:09;;;;;;;17.65;15.05;;;;;;;13.80;66.03;102947.94;5303405;28;20371;-73
2022/03/27 12:13:59;;;;;;;20.83;16.10;;;;;;;13.92;64.54;102937.50;5303694;28;20379;-73
2022/03/27 12:16:31;;;;;;;20.20;15.93;;;;;;;14.00;64.99;102936.19;5301162;28;20115;-74
2022/03/27 12:19:13;;;;;;;17.52;15.65;;;;;;;14.24;64.25;102935.88;5282632;28;20027;-73
2022/03/27 12:21:46;;;;;;;19.73;16.10;;;;;;;14.47;62.98;102929.13;5292057;28;20066;-71
2022/03/27 12:24:18;;;;;;;17.63;15.20;;;;;;;14.44;62.45;102929.66;5287265;28;20021;-71
2022/03/27 12:29:40;;;;;;;18.52;14.65;;;;;;;14.70;61.53;102917.63;5282884;28;20033;-70
2022/03/27 12:32:14;;;;;;;17.02;13.85;;;;;;;14.86;60.41;102910.22;5281878;28;20028;-71
2022/03/27 12:34:47;;;;;;;17.02;14.70;;;;;;;15.02;59.34;102910.31;5282780;28;20070;-72
2022/03/27 12:37:26;;;;;;;15.77;13.55;;;;;;;15.15;59.50;102901.44;5282774;28;20029;-70
2022/03/27 12:40:05;;;;;;;18.35;16.08;;;;;;;15.19;58.27;102903.44;5282650;28;20033;-70
2022/03/27 12:42:43;;;;;;;14.23;12.73;;;;;;;15.25;57.08;102897.88;5288178;28;20076;-72
2022/03/27 12:45:19;;;;;;;18.38;11.43;;;;;;;15.35;55.64;102883.94;5306285;28;20419;-72
2022/03/27 12:48:03;;;;;;;12.65;11.35;;;;;;;15.46;56.36;102896.84;5307573;28;20386;-72
2022/03/27 12:50:39;;;;;;;22.08;19.80;;;;;;;15.51;55.62;102882.03;5307827;28;20062;-72
2022/03/27 12:53:32;;;;;;;15.18;12.50;;;;;;;15.70;54.85;102885.19;5306589;28;20467;-72
2022/03/27 12:56:11;;;;;;;14.85;12.05;;;;;;;16.00;54.00;102879.72;5294753;28;20044;-71
2022/03/27 12:58:42;;;;;;;13.55;10.23;;;;;;;16.14;51.96;102879.16;5304509;28;20047;-72
2022/03/27 13:01:21;;;;;;;10.85;9.77;;;;;;;16.31;51.80;102868.53;5288615;28;20017;-72
2022/03/27 13:04:13;;;;;;;12.65;11.30;;;;;;;16.39;52.91;102867.13;5286182;28;20348;-72
2022/03/27 13:06:58;;;;;;;13.90;11.63;;;;;;;16.28;53.22;102863.47;5285558;28;20353;-72
2022/03/27 13:09:30;;;;;;;13.80;11.07;;;;;;;16.50;52.45;102860.41;5286290;28;20032;-72
2022/03/27 13:12:11;;;;;;;12.90;11.60;;;;;;;16.57;52.15;102860.13;5285986;28;20421;-72
2022/03/27 13:14:44;;;;;;;13.73;12.32;;;;;;;16.76;52.04;102858.41;5285066;28;20073;-72
2022/03/27 13:17:16;;;;;;;11.45;10.25;;;;;;;16.73;48.91;102844.97;5297024;28;20392;-72
2022/03/27 13:19:47;;;;;;;10.95;8.77;;;;;;;16.98;47.74;102849.72;5306062;28;20052;-73
2022/03/27 13:22:18;;;;;;;10.27;8.70;;;;;;;17.08;46.67;102855.28;5306785;28;20506;-72
2022/03/27 13:24:50;;;;;;;12.38;10.18;;;;;;;17.01;45.51;102843.53;5286719;28;20512;-72
2022/03/27 13:27:22;;;;;;;13.05;10.55;;;;;;;17.15;45.83;102832.53;5284865;28;20174;-72
2022/03/27 13:29:53;;;;;;;10.43;8.98;;;;;;;17.23;44.63;102834.75;5285574;28;20887;-72
2022/03/27 13:32:24;;;;;;;9.70;7.82;;;;;;;17.47;43.31;102822.88;5298124;28;20013;-72
2022/03/27 13:34:56;;;;;;;17.75;14.57;;;;;;;17.64;41.95;102826.16;5285567;28;20032;-72
2022/03/27 13:37:31;;;;;;;13.50;9.65;;;;;;;17.87;41.10;102827.44;5286483;28;20032;-73
2022/03/27 13:40:02;;;;;;;;;;;;;;;18.23;39.40;102816.75;5286093;28;20032;-73
2022/03/27 13:45:28;;;;;;;11.63;9.20;;;;;;;17.97;38.44;102809.66;5302878;28;20032;-72
2022/03/27 13:47:59;;;;;;;8.50;7.10;;;;;;;17.95;38.59;102817.53;5305734;28;20028;-72
2022/03/27 13:50:31;;;;;;;12.13;7.80;;;;;;;18.25;39.07;102805.19;5300175;28;20090;-72
2022/03/27 13:53:03;;;;;;;8.57;7.18;;;;;;;18.38;38.16;102810.16;5284700;28;20024;-72
2022/03/27 13:55:35;;;;;;;8.23;7.35;;;;;;;18.22;37.41;102817.88;5284245;28;20108;-72
2022/03/27 13:58:07;;;;;;;7.97;6.97;;;;;;;18.23;37.97;102808.31;5284858;28;20044;-72
2022/03/27 14:00:38;;;;;;;10.15;6.97;;;;;;;18.49;36.75;102805.28;5285200;28;20510;-72
2022/03/27 14:03:09;;;;;;;6.97;6.07;;;;;;;18.60;35.14;102806.84;5284214;28;20056;-72
2022/03/27 14:05:42;;;;;;;6.65;5.97;;;;;;;18.44;34.14;102803.34;5285121;28;20394;-71
2022/03/27 14:08:13;;;;;;;8.95;7.65;;;;;;;18.33;33.91;102792.50;5295448;28;20024;-72
2022/03/27 14:10:44;;;;;;;7.65;6.35;;;;;;;18.56;34.63;102796.47;5305035;28;20027;-72
2022/03/27 14:13:16;;;;;;;6.22;5.60;;;;;;;18.63;33.98;102789.38;5305647;28;20024;-71
2022/03/27 14:15:47;;;;;;;10.10;7.35;;;;;;;18.63;33.89;102791.34;5305790;28;20095;-71
2022/03/27 14:18:19;;;;;;;7.18;6.45;;;;;;;18.63;34.36;102786.56;5304966;28;20028;-72
2022/03/27 14:20:53;;;;;;;7.40;6.38;;;;;;;18.82;34.24;102788.66;5304938;28;20024;-71
2022/03/27 14:23:24;;;;;;;9.35;6.78;;;;;;;18.61;33.29;102779.56;5304949;28;20040;-71
2022/03/27 14:25:57;;;;;;;7.57;6.05;;;;;;;18.75;33.39;102779.72;5304896;28;20074;-71
2022/03/27 14:28:29;;;;;;;9.20;6.88;;;;;;;18.67;33.56;102775.59;5305413;28;20024;-71
2022/03/27 14:31:01;;;;;;;7.50;6.38;;;;;;;18.70;33.12;102766.56;5304935;28;20371;-72
2022/03/27 14:33:32;;;;;;;9.32;6.50;;;;;;;18.82;32.32;102771.78;5297708;28;20016;-73
2022/03/27 14:36:04;;;;;;;9.90;6.85;;;;;;;18.61;32.54;102772.00;5284392;28;20590;-70
2022/03/27 14:38:35;;;;;;;8.90;7.32;;;;;;;18.84;33.37;102763.88;5316434;28;20047;-71
2022/03/27 14:41:06;;;;;;;8.52;6.80;;;;;;;18.72;32.56;102769.06;5284996;28;20028;-71
2022/03/27 14:43:38;;;;;;;8.50;6.57;;;;;;;18.87;32.08;102772.56;5292952;28;20137;-70
2022/03/27 14:46:09;;;;;;;7.22;5.97;;;;;;;19.09;33.37;102772.00;5304575;28;20115;-67
2022/03/27 14:48:41;;;;;;;9.27;6.40;;;;;;;18.90;31.54;102771.13;5305356;28;20604;-71
2022/03/27 14:51:12;;;;;;;9.95;7.45;;;;;;;19.03;32.00;102770.38;5300407;28;20020;-71
2022/03/27 14:56:33;;;;;;;18.92;16.10;;;;;;;19.01;30.96;102766.22;5283884;28;20032;-72
2022/03/27 14:59:05;;;;;;;29.33;26.30;;;;;;;19.00;31.34;102759.75;5284081;28;20017;-73
2022/03/27 15:01:37;;;;;;;10.35;6.68;;;;;;;18.98;31.98;102762.03;5283786;28;20060;-73
2022/03/27 15:04:08;;;;;;;9.60;7.65;;;;;;;19.01;31.77;102752.97;5283641;28;20059;-72
2022/03/27 15:06:39;;;;;;;7.72;6.75;;;;;;;18.92;31.07;102754.81;5282428;28;20017;-73
2022/03/27 15:09:11;;;;;;;7.82;7.00;;;;;;;18.98;32.16;102753.59;5283499;28;20082;-72
2022/03/27 15:11:42;;;;;;;9.20;7.38;;;;;;;18.93;31.40;102748.03;5284535;28;20054;-72
2022/03/27 15:14:13;;;;;;;9.75;7.35;;;;;;;18.99;33.30;102748.78;5282691;28;20103;-72
2022/03/27 15:16:45;;;;;;;9.10;7.30;;;;;;;19.23;31.95;102737.53;5299225;28;20072;-72
2022/03/27 15:19:16;;;;;;;9.50;7.72;;;;;;;18.81;30.90;102733.56;5303818;28;20077;-72
2022/03/27 15:21:48;;;;;;;9.15;7.22;;;;;;;19.01;31.10;102732.47;5304960;28;20544;-70
2022/03/27 15:24:20;;;;;;;7.25;6.55;;;;;;;18.99;32.17;102729.13;5304392;28;20078;-71
2022/03/27 15:26:51;;;;;;;8.00;7.05;;;;;;;18.99;31.94;102729.94;5303824;28;20020;-72
2022/03/27 15:29:23;;;;;;;10.18;7.57;;;;;;;18.73;31.65;102728.56;5304160;28;20044;-72
2022/03/27 15:31:54;;;;;;;9.15;7.60;;;;;;;18.60;31.20;102722.53;5303969;28;20027;-71
2022/03/27 15:34:27;;;;;;;7.03;6.22;;;;;;;18.74;31.74;102727.44;5303156;28;20460;-71
2022/03/27 15:36:59;;;;;;;8.98;7.95;;;;;;;18.78;31.72;102728.53;5304433;28;20530;-72
2022/03/27 15:39:33;;;;;;;10.02;8.02;;;;;;;18.76;31.88;102719.56;5303761;28;20111;-72
2022/03/27 15:42:05;;;;;;;8.20;6.63;;;;;;;18.78;31.67;102722.94;5303609;28;20020;-72
2022/03/27 15:44:36;;;;;;;8.68;6.50;;;;;;;18.79;32.20;102716.16;5304344;28;20024;-71
2022/03/27 15:47:08;;;;;;;10.05;6.82;;;;;;;18.67;31.71;102720.22;5304559;28;20028;-72
2022/03/27 15:49:40;;;;;;;13.75;10.77;;;;;;;18.74;32.54;102711.44;5293710;28;20033;-67
2022/03/27 15:52:11;;;;;;;10.98;7.05;;;;;;;18.73;32.21;102717.34;5302879;28;20021;-70
2022/03/27 15:54:42;;;;;;;13.82;7.68;;;;;;;18.78;31.46;102703.25;5287711;28;20489;-70
2022/03/27 15:57:14;;;;;;;7.10;6.22;;;;;;;18.54;31.68;102706.88;5301266;28;20075;-70
2022/03/27 15:59:45;;;;;;;7.20;5.63;;;;;;;18.75;33.86;102707.50;5299967;28;20226;-70
2022/03/27 16:02:16;;;;;;;7.75;5.95;;;;;;;18.92;32.72;102721.06;5293526;28;20031;-70
2022/03/27 16:04:48;;;;;;;6.65;5.88;;;;;;;18.82;32.03;102713.59;5303790;28;20036;-71
2022/03/27 16:07:19;;;;;;;7.13;5.45;;;;;;;18.72;31.67;102724.94;5295505;28;20036;-71
2022/03/27 16:09:51;;;;;;;8.38;5.90;;;;;;;18.81;32.00;102714.72;5293189;28;20098;-70
2022/03/27 16:12:25;;;;;;;9.45;7.03;;;;;;;18.67;31.94;102710.94;5283167;28;20476;-71
2022/03/27 16:14:56;;;;;;;8.65;7.28;;;;;;;18.76;31.63;102714.78;5281891;28;20037;-71
2022/03/27 16:17:27;;;;;;;8.88;5.78;;;;;;;18.74;32.04;102717.03;5283203;28;20043;-70
2022/03/27 16:19:59;;;;;;;9.75;6.18;;;;;;;18.66;31.88;102714.88;5297801;28;20036;-70
2022/03/27 16:22:30;;;;;;;9.25;5.78;;;;;;;18.46;31.45;102707.56;5293198;28;20060;-70
2022/03/27 16:25:03;;;;;;;11.75;5.60;;;;;;;18.42;32.22;102707.28;5286964;28;20414;-70
2022/03/27 16:27:35;;;;;;;8.20;5.53;;;;;;;18.59;31.86;102706.81;5307751;28;20381;-70
2022/03/27 16:30:07;;;;;;;8.52;6.38;;;;;;;18.44;32.26;102712.63;5307221;28;20031;-70
2022/03/27 16:32:38;;;;;;;8.73;5.93;;;;;;;18.35;33.97;102700.34;5288607;28;20048;-69
2022/03/27 16:35:10;;;;;;;8.98;5.97;;;;;;;18.24;33.26;102702.44;5286408;28;20052;-70
2022/03/27 16:37:41;;;;;;;8.15;6.15;;;;;;;18.18;33.64;102695.22;5285460;28;20135;-69
2022/03/27 16:40:13;;;;;;;8.32;5.60;;;;;;;18.18;33.54;102690.44;5291553;28;20052;-69
2022/03/27 16:42:45;;;;;;;9.93;6.00;;;;;;;18.08;33.45;102693.34;5286245;28;20029;-70
2022/03/27 16:45:16;;;;;;;8.40;5.88;;;;;;;18.09;33.77;102686.59;5285412;28;20093;-70
2022/03/27 16:47:48;;;;;;;9.13;6.07;;;;;;;17.79;34.16;102685.75;5286648;28;20479;-69
2022/03/27 16:50:20;;;;;;;7.53;6.25;;;;;;;17.91;34.43;102682.53;5288083;28;20104;-69
2022/03/27 16:52:51;;;;;;;8.60;6.40;;;;;;;17.68;34.94;102684.13;5284793;28;20021;-70
2022/03/27 16:55:23;;;;;;;8.48;7.03;;;;;;;17.65;34.70;102681.91;5285667;28;20091;-69
2022/03/27 16:57:54;;;;;;;8.05;5.88;;;;;;;17.58;35.35;102675.78;5297359;28;20059;-71
2022/03/27 17:00:25;;;;;;;7.53;6.47;;;;;;;17.38;36.45;102677.66;5286891;28;20149;-70
2022/03/27 17:02:57;;;;;;;11.23;6.43;;;;;;;17.34;36.30;102679.34;5286016;28;20494;-70
2022/03/27 17:05:28;;;;;;;10.15;6.45;;;;;;;17.38;36.08;102668.38;5293982;28;20035;-70
2022/03/27 17:07:59;;;;;;;9.43;7.07;;;;;;;17.15;36.36;102675.53;5285883;28;20476;-71
2022/03/27 17:10:31;;;;;;;8.40;6.90;;;;;;;17.12;37.65;102671.34;5295310;28;20032;-72
2022/03/27 17:13:02;;;;;;;8.65;6.68;;;;;;;17.13;36.84;102680.63;5306298;28;20078;-71
2022/03/27 17:15:34;;;;;;;8.13;6.90;;;;;;;17.12;37.58;102682.56;5293554;28;20026;-71
2022/03/27 17:18:05;;;;;;;8.93;5.75;;;;;;;17.07;37.62;102676.16;5285656;28;20033;-70
2022/03/27 17:20:37;;;;;;;6.95;5.55;;;;;;;17.08;38.65;102677.84;5277712;28;20368;-71
2022/03/27 17:23:11;;;;;;;10.23;6.32;;;;;;;17.00;38.69;102673.69;5288078;28;20451;-71
2022/03/27 17:25:42;;;;;;;7.43;6.10;;;;;;;16.93;38.85;102679.59;5286326;28;20033;-69
2022/03/27 17:28:14;;;;;;;9.50;6.15;;;;;;;16.85;38.60;102671.81;5284925;28;20043;-69
